Buffalo, WY

4:15 PM MDT on May 25, 2015 (GMT -0600)
Esponda Ranch | | Change Station
CLOSE
Current Station
Personal Weather Station
Location: Buffalo, WY
Elevation: 4665 ft
Nearby Weather Stations

Elev 4665 ft 44.32 °N, 106.67 °W | Updated 36 seconds ago

Mostly Cloudy
Mostly Cloudy
61.6 °F
Feels Like 61.6 °F
N
1.0
Wind Variable Wind from WSW
Gusts 3.0 mph

Today
High -- | Low -- °F
--% Chance of Precip.
Yesterday
High -- | Low -- °F
Precip. -- in
5:30 AM 8:37 PM
First Quarter, 52% visible
Pressure 29.87 in
Visibility 10.0 miles
Clouds Scattered Clouds 2800 ft
Mostly Cloudy 3700 ft
Mostly Cloudy 4500 ft
Dew Point 49 °F
Humidity 63%
Rainfall 0.11 in
Snow Depth Not available.
UV 4 out of 12
Pollen 3.50 out of 12
Air Quality Not available.
Flu Activity Sporadic
METAR KBYG 252153Z AUTO VRB03KT 10SM SCT028 BKN037 BKN045 14/08 A2995 RMK AO2 SLP115 T01390078 $

More Conditions Fewer Conditions

Pressure 29.87 in
Visibility 10.0 miles
Clouds Scattered Clouds 2800 ft
Mostly Cloudy 3700 ft
Mostly Cloudy 4500 ft
Dew Point 49 °F
Humidity 63%
Rainfall 0.11 in
Snow Depth Not available.
UV 4 out of 12
Pollen 3.50 out of 12
Air Quality Not available.
Flu Activity Sporadic
METAR KBYG 252153Z AUTO VRB03KT 10SM SCT028 BKN037 BKN045 14/08 A2995 RMK AO2 SLP115 T01390078 $

More Conditions Fewer Conditions

10-Day Weather Forecast

Almanac

Astronomy

May. 25, 2015 Rise Set
Actual Time
Civil Twilight
Nautical Twilight
Astronomical Twilight
Moon
Length of Visible Light
Length of Day
Tomorrow will be .
, % of the Moon is Illuminated

Today's Extremes

State Highs State Lows

Community

WunderPhotos

Upload Photos

1,824,149 photos uploaded!

WunderBlogs® & News

Nearby

Air Quality

  Air Quality AQ Index Pollutant
Not available.

Snow Depth

Station Depth Elevation

Earthquake Activity

City Distance Mag. Time & Date
Minimum magnitude displayed is 2.5.

Coastal Water Temperatures

Place Temperature

Stations

Nearby Weather Stations

Station Location Temp. Windchill Dew Point Humidity Wind Precip. Elev Updated Type